Belleview, Kentucky
Current Conditions -  °F | °C
As of 5:52 PM on Thursday 23 Oct 2014 (Local Time) from KCVG Reporting Station
Broken Clouds Broken Clouds  
Wind Chill: 59°   Ceiling: 25000
Heat Index: 59°   Visibility: 10mi
Dew Point: 39°   Wind: 0mph
Humidity: 48%   Direction: NA
Pressure: 30.13"   Gusts: NA
Location:  39.0238°N, 84.7647°W
Report Text: KCVG 232152Z 00000KT 10SM BKN250 15/04 A3013 RMK AO2 SLP203 T01500039
Loading
Personal Weather Stations






























Interactive Weather Map
Tropical Storm Tracking
New forecast layout! Learn more

10-Day Weather Forecast

Advertisements
Track Severe Weather on mobile